Terminal Aerodrome Forecast
Issued by NWS Mt. Holly, NJ

Home | Current Version | Previous Version | Text Only | Print | Product List | Glossary On
Versions: 1 2 3 4 5 6 7 8 9 10 11 12 13 14 15 16 17 18 19 20 21 22 23 24 25 26 27 28
000
FTUS41 KPHI 200900 AAA
TAFPHL
TAF AMD
KPHL 200900Z 2009/2112 VRB03KT P6SM SCT250
     FM201200 25003KT P6SM BKN250
     FM201500 22010KT P6SM SCT150 BKN250
     FM210000 20005KT P6SM BKN100
     FM210400 21005KT P6SM OVC080=

USA.gov is the U.S. government's official web portal to all federal, state and local government web resources and services.